Nulltown, Indiana
Current Conditions -  °F | °C
As of 2:15 AM on Sunday 26 Oct 2014 (Local Time) from KI67 Reporting Station
Clear Clear  
Wind Chill: 59°   Ceiling: Unl
Heat Index: 59°   Visibility: 10mi
Dew Point: 32°   Wind: 3mph
Humidity: 36%   Direction: 320°NW
Pressure: 29.95"   Gusts: NA
Location:  39.645°N, 85.1744°W
Report Text: KI67 260615Z AUTO 32003KT 10SM CLR 15/00 A2995 RMK AO1
Loading
Personal Weather Stations






























Interactive Weather Map
Tropical Storm Tracking
New forecast layout! Learn more

10-Day Weather Forecast

Advertisements
Track Severe Weather on mobile